createdAt,value
2023-04-17T00:01:05.369Z,102042.63
2023-04-17T00:03:32.164Z,102028.69
2023-04-17T00:05:58.886Z,102043.41
2023-04-17T00:08:25.341Z,102030.25
2023-04-17T00:11:00.677Z,102015.88
2023-04-17T00:13:33.309Z,102038.25
2023-04-17T00:15:59.883Z,102042.25
2023-04-17T00:18:26.432Z,102043.41
2023-04-17T00:20:53.657Z,102042.63
2023-04-17T00:23:20.496Z,102039.44
2023-04-17T00:25:47.062Z,102043.78
2023-04-17T00:28:13.493Z,102040.25
2023-04-17T00:30:39.971Z,102035.84
2023-04-17T00:33:06.446Z,102044.16
2023-04-17T00:35:32.938Z,102043.78
2023-04-17T00:37:59.466Z,102045.78
2023-04-17T00:40:26.050Z,102036.28
2023-04-17T00:42:56.075Z,102041.00
2023-04-17T00:45:22.558Z,102038.63
2023-04-17T00:47:49.719Z,102041.75
2023-04-17T00:50:16.396Z,102039.00
2023-04-17T00:52:44.141Z,102035.44
2023-04-17T00:55:10.963Z,102031.47
2023-04-17T00:57:37.428Z,102031.47
2023-04-17T01:00:04.532Z,102030.28
2023-04-17T01:02:31.249Z,102029.53
2023-04-17T01:04:57.867Z,102025.16
2023-04-17T01:07:24.360Z,102033.50
2023-04-17T01:09:51.029Z,102037.47
2023-04-17T01:12:21.812Z,102035.09
2023-04-17T01:14:55.960Z,102033.50
2023-04-17T01:17:23.453Z,102032.69
2023-04-17T01:19:50.634Z,102029.06
2023-04-17T01:22:17.298Z,102040.25
2023-04-17T01:24:44.337Z,102033.41
2023-04-17T01:27:13.696Z,102033.03
2023-04-17T01:29:41.294Z,102033.03
2023-04-17T01:32:08.089Z,102028.69
2023-04-17T01:34:37.316Z,102034.63
2023-04-17T01:37:04.285Z,102033.03
2023-04-17T01:39:30.742Z,102036.13
2023-04-17T01:41:57.207Z,102029.38
2023-04-17T01:44:23.779Z,102037.75
2023-04-17T01:46:51.174Z,102036.94
2023-04-17T01:49:17.670Z,102035.28
2023-04-17T01:51:44.198Z,102030.88
2023-04-17T01:54:10.820Z,102042.41
2023-04-17T01:56:37.328Z,102042.03
2023-04-17T01:59:03.834Z,102043.16
2023-04-17T02:01:31.095Z,102043.50
2023-04-17T02:03:57.855Z,102043.97
2023-04-17T02:06:24.894Z,102048.72
2023-04-17T02:08:51.402Z,102043.91
2023-04-17T02:11:18.392Z,102049.53
2023-04-17T02:13:44.867Z,102053.91
2023-04-17T02:16:12.528Z,102049.91
2023-04-17T02:18:40.730Z,102049.91
2023-04-17T02:21:10.355Z,102051.50
2023-04-17T02:23:36.834Z,102049.06
2023-04-17T02:26:03.500Z,102049.44
2023-04-17T02:28:30.073Z,102056.91
2023-04-17T02:30:56.696Z,102051.31
2023-04-17T02:33:26.129Z,102054.09
2023-04-17T02:35:52.643Z,102051.69
2023-04-17T02:38:19.164Z,102046.06
2023-04-17T02:40:45.703Z,102048.44
2023-04-17T02:43:14.047Z,102046.41
2023-04-17T02:45:40.511Z,102048.72
2023-04-17T02:48:07.112Z,102052.69
2023-04-17T02:50:33.960Z,102053.00
2023-04-17T02:53:00.398Z,102054.59
2023-04-17T02:55:27.140Z,102049.84
2023-04-17T02:57:53.634Z,102062.06
2023-04-17T03:00:20.750Z,102056.84
2023-04-17T03:02:47.818Z,102046.53
2023-04-17T03:05:16.489Z,102060.41
2023-04-17T03:07:43.022Z,102053.63
2023-04-17T03:10:09.701Z,102057.16
2023-04-17T03:12:36.326Z,102055.94
2023-04-17T03:15:03.013Z,102057.53
2023-04-17T03:17:29.526Z,102062.22
2023-04-17T03:19:56.033Z,102054.63
2023-04-17T03:22:22.475Z,102058.13
2023-04-17T03:24:48.976Z,102069.16
2023-04-17T03:27:15.630Z,102058.53
2023-04-17T03:29:44.748Z,102054.97
2023-04-17T03:32:11.217Z,102059.72
2023-04-17T03:34:38.229Z,102060.94
2023-04-17T03:37:04.659Z,102056.94
2023-04-17T03:39:31.077Z,102061.31
2023-04-17T03:41:57.571Z,102071.63
2023-04-17T03:44:24.029Z,102062.13
2023-04-17T03:46:50.561Z,102067.66
2023-04-17T03:49:17.070Z,102074.41
2023-04-17T03:51:43.777Z,102065.63
2023-04-17T03:54:10.309Z,102063.97
2023-04-17T03:56:36.827Z,102071.63
2023-04-17T03:59:04.482Z,102070.81
2023-04-17T04:01:32.721Z,102069.25
2023-04-17T04:04:00.024Z,102077.56
2023-04-17T04:06:29.790Z,102076.78
2023-04-17T04:08:56.999Z,102077.16
2023-04-17T04:11:23.523Z,102085.13
2023-04-17T04:13:50.073Z,102076.31
2023-04-17T04:16:16.666Z,102088.63
2023-04-17T04:18:43.345Z,102082.22
2023-04-17T04:21:12.057Z,102085.41
2023-04-17T04:23:41.197Z,102085.00
2023-04-17T04:26:07.920Z,102092.88
2023-04-17T04:28:34.554Z,102088.44
2023-04-17T04:31:02.531Z,102096.75
2023-04-17T04:33:29.532Z,102094.38
2023-04-17T04:35:56.158Z,102107.41
2023-04-17T04:38:29.920Z,102105.78
2023-04-17T04:41:06.088Z,102106.97
2023-04-17T04:43:33.603Z,102109.28
2023-04-17T04:46:00.105Z,102110.91
2023-04-17T04:48:26.639Z,102113.56
2023-04-17T04:50:53.111Z,102113.22
2023-04-17T04:53:19.538Z,102115.91
2023-04-17T04:55:46.048Z,102120.25
2023-04-17T04:58:12.690Z,102124.22
2023-04-17T05:00:39.499Z,102124.22
2023-04-17T05:03:06.682Z,102123.41
2023-04-17T05:05:33.272Z,102120.59
2023-04-17T05:07:59.739Z,102126.94
2023-04-17T05:10:26.374Z,102128.47
2023-04-17T05:12:52.812Z,102127.72
2023-04-17T05:15:19.313Z,102130.13
2023-04-17T05:17:45.843Z,102134.13
2023-04-17T05:20:12.683Z,102135.31
2023-04-17T05:22:39.178Z,102139.31
2023-04-17T05:25:05.853Z,102139.31
2023-04-17T05:27:32.410Z,102131.69
2023-04-17T05:29:58.846Z,102148.44
2023-04-17T05:32:25.415Z,102138.94
2023-04-17T05:34:52.312Z,102142.88
2023-04-17T05:37:19.010Z,102138.56
2023-04-17T05:39:45.445Z,102139.38
2023-04-17T05:42:11.841Z,102142.56
2023-04-17T05:44:39.382Z,102149.72
2023-04-17T05:47:06.141Z,102143.38
2023-04-17T05:49:32.592Z,102144.91
2023-04-17T05:51:59.146Z,102146.47
2023-04-17T05:54:27.914Z,102144.13
2023-04-17T05:56:54.456Z,102147.25
2023-04-17T05:59:21.078Z,102145.75
2023-04-17T06:01:47.512Z,102153.28
2023-04-17T06:04:14.728Z,102149.00
2023-04-17T06:06:41.521Z,102160.97
2023-04-17T06:09:09.511Z,102159.88
2023-04-17T06:11:36.015Z,102163.88
2023-04-17T06:14:02.571Z,102159.50
2023-04-17T06:16:29.063Z,102163.06
2023-04-17T06:18:56.054Z,102167.50
2023-04-17T06:21:22.657Z,102165.53
2023-04-17T06:23:49.147Z,102157.22
2023-04-17T06:26:16.110Z,102165.56
2023-04-17T06:28:42.596Z,102177.13
2023-04-17T06:31:09.120Z,102172.31
2023-04-17T06:33:35.612Z,102168.72
2023-04-17T06:36:03.319Z,102179.41
2023-04-17T06:38:29.767Z,102178.66
2023-04-17T06:40:56.331Z,102183.47
2023-04-17T06:43:22.856Z,102192.56
2023-04-17T06:45:49.344Z,102179.53
2023-04-17T06:48:16.001Z,102192.09
2023-04-17T06:50:42.734Z,102190.13
2023-04-17T06:53:09.258Z,102191.41
2023-04-17T06:55:35.803Z,102193.38
2023-04-17T06:58:02.318Z,102192.56
2023-04-17T07:00:28.778Z,102193.88
2023-04-17T07:02:55.347Z,102198.31
2023-04-17T07:05:21.938Z,102203.88
2023-04-17T07:07:48.410Z,102190.84
2023-04-17T07:10:15.933Z,102198.47
2023-04-17T07:12:42.720Z,102202.91
2023-04-17T07:15:09.667Z,102194.28
2023-04-17T07:17:36.293Z,102200.94
2023-04-17T07:20:05.337Z,102196.72
2023-04-17T07:22:31.857Z,102200.78
2023-04-17T07:24:58.336Z,102208.78
2023-04-17T07:27:24.822Z,102211.94
2023-04-17T07:29:54.746Z,102220.78
2023-04-17T07:32:22.088Z,102212.00
2023-04-17T07:34:48.657Z,102214.44
2023-04-17T07:37:15.788Z,102218.84
2023-04-17T07:39:42.503Z,102215.63
2023-04-17T07:42:09.107Z,102219.63
2023-04-17T07:44:35.666Z,102227.97
2023-04-17T07:47:02.262Z,102228.84
2023-04-17T07:49:28.811Z,102223.41
2023-04-17T07:51:55.567Z,102228.22
2023-04-17T07:54:22.084Z,102220.00
2023-04-17T07:56:49.431Z,102226.97
2023-04-17T07:59:19.060Z,102233.06
2023-04-17T08:01:45.545Z,102231.19
2023-04-17T08:04:12.457Z,102231.25
2023-04-17T08:06:39.193Z,102233.28
2023-04-17T08:09:07.110Z,102232.06
2023-04-17T08:11:42.719Z,102241.69
2023-04-17T08:14:17.430Z,102244.56
2023-04-17T08:16:43.943Z,102233.53
2023-04-17T08:19:10.719Z,102231.28
2023-04-17T08:21:37.675Z,102238.94
2023-04-17T08:24:04.472Z,102241.47
2023-04-17T08:26:31.503Z,102241.59
2023-04-17T08:29:01.550Z,102243.28
2023-04-17T08:31:28.938Z,102245.00
2023-04-17T08:34:06.202Z,102236.38
2023-04-17T08:36:40.264Z,102254.72
2023-04-17T08:39:07.096Z,102233.66
2023-04-17T08:41:43.504Z,102249.72
2023-04-17T08:44:10.787Z,102244.97
2023-04-17T08:46:38.842Z,102248.91
2023-04-17T08:49:05.475Z,102252.13
2023-04-17T08:51:32.693Z,102249.38
2023-04-17T08:53:59.202Z,102239.47
2023-04-17T08:56:26.344Z,102250.25
2023-04-17T08:58:52.972Z,102254.63
2023-04-17T09:01:20.743Z,102252.28
2023-04-17T09:03:49.191Z,102255.16
2023-04-17T09:06:16.186Z,102252.47
2023-04-17T09:08:56.558Z,102258.88
2023-04-17T09:11:23.126Z,102254.53
2023-04-17T09:13:49.639Z,102265.72
2023-04-17T09:16:16.294Z,102261.41
2023-04-17T09:18:43.459Z,102259.47
2023-04-17T09:21:10.463Z,102266.66
2023-04-17T09:23:58.861Z,102265.13
2023-04-17T09:26:27.461Z,102260.81
2023-04-17T09:29:12.132Z,102269.19
2023-04-17T09:31:41.396Z,102269.63
2023-04-17T09:34:11.818Z,102265.63
2023-04-17T09:36:41.561Z,102262.84
2023-04-17T09:39:20.762Z,102264.47
2023-04-17T09:41:47.647Z,102262.50
2023-04-17T09:44:26.966Z,102262.91
2023-04-17T09:46:54.486Z,102267.31
2023-04-17T09:49:42.636Z,102269.69
2023-04-17T09:52:09.227Z,102255.72
2023-04-17T09:54:39.099Z,102268.53
2023-04-17T09:57:10.307Z,102266.94
2023-04-17T09:59:45.604Z,102266.94
2023-04-17T10:02:16.452Z,102260.56
2023-04-17T10:04:45.202Z,102258.94
2023-04-17T10:07:16.595Z,102261.75
2023-04-17T10:09:45.717Z,102256.56
2023-04-17T10:12:15.379Z,102258.97
2023-04-17T10:14:46.969Z,102264.13
2023-04-17T10:17:34.299Z,102258.88
2023-04-17T10:20:20.024Z,102256.47
2023-04-17T10:22:56.997Z,102251.59
2023-04-17T10:25:24.443Z,102254.78
2023-04-17T10:27:54.372Z,102254.31
2023-04-17T10:30:26.262Z,102247.50
2023-04-17T10:33:20.494Z,102248.56
2023-04-17T10:35:47.231Z,102252.78
2023-04-17T10:38:13.795Z,102243.31
2023-04-17T10:40:43.880Z,102240.81
2023-04-17T10:43:11.176Z,102235.50
2023-04-17T10:45:56.847Z,102240.78
2023-04-17T10:48:41.679Z,102242.09
2023-04-17T10:51:23.219Z,102244.63
2023-04-17T10:54:03.711Z,102241.94
2023-04-17T10:56:40.045Z,102230.13
2023-04-17T10:59:08.768Z,102231.78
2023-04-17T11:01:48.598Z,102230.44
2023-04-17T11:04:28.174Z,102220.41
2023-04-17T11:06:55.785Z,102221.88
2023-04-17T11:09:24.344Z,102223.78
2023-04-17T11:11:51.177Z,102217.19
2023-04-17T11:14:19.739Z,102209.94
2023-04-17T11:16:47.999Z,102212.31
2023-04-17T11:19:23.211Z,102223.06
2023-04-17T11:21:50.358Z,102231.78
2023-04-17T11:24:27.431Z,102215.56
2023-04-17T11:26:56.491Z,102232.22
2023-04-17T11:29:24.270Z,102231.50
2023-04-17T11:31:54.634Z,102209.00
2023-04-17T11:34:21.929Z,102218.53
2023-04-17T11:36:52.456Z,102222.47
2023-04-17T11:39:20.116Z,102222.28
2023-04-17T11:41:46.829Z,102224.38
2023-04-17T11:44:14.390Z,102216.34
2023-04-17T11:46:41.246Z,102226.22
2023-04-17T11:49:08.373Z,102234.88
2023-04-17T11:51:35.032Z,102225.41
2023-04-17T11:54:01.534Z,102227.72
2023-04-17T11:56:31.078Z,102230.75
2023-04-17T11:58:59.108Z,102237.28
2023-04-17T12:01:26.829Z,102233.59
2023-04-17T12:03:54.881Z,102234.63
2023-04-17T12:06:22.081Z,102238.28
2023-04-17T12:08:51.136Z,102237.97
2023-04-17T12:11:26.101Z,102239.44
2023-04-17T12:13:53.454Z,102231.53
2023-04-17T12:16:20.266Z,102233.81
2023-04-17T12:18:46.844Z,102236.25
2023-04-17T12:21:14.083Z,102229.25
2023-04-17T12:23:41.416Z,102223.53
2023-04-17T12:26:08.818Z,102235.53
2023-04-17T12:28:36.295Z,102221.66
2023-04-17T12:31:04.510Z,102231.19
2023-04-17T12:33:32.075Z,102228.94
2023-04-17T12:36:00.333Z,102227.03
2023-04-17T12:38:26.922Z,102221.34
2023-04-17T12:40:53.471Z,102225.50
2023-04-17T12:43:19.937Z,102221.03
2023-04-17T12:45:46.673Z,102217.19
2023-04-17T12:48:14.529Z,102216.97
2023-04-17T12:50:44.710Z,102212.56
2023-04-17T12:53:13.276Z,102210.94
2023-04-17T12:55:41.630Z,102213.69
2023-04-17T12:58:11.045Z,102199.75
2023-04-17T13:00:39.152Z,102208.50
2023-04-17T13:03:06.081Z,102210.56
2023-04-17T13:05:32.719Z,102202.06
2023-04-17T13:07:59.385Z,102207.25
2023-04-17T13:10:26.105Z,102201.69
2023-04-17T13:12:52.815Z,102199.13
2023-04-17T13:15:19.455Z,102189.81
2023-04-17T13:17:46.535Z,102194.28
2023-04-17T13:20:13.240Z,102188.72
2023-04-17T13:22:39.861Z,102186.91
2023-04-17T13:25:07.045Z,102183.84
2023-04-17T13:27:33.538Z,102185.41
2023-04-17T13:29:59.998Z,102183.06
2023-04-17T13:32:26.506Z,102185.16
2023-04-17T13:34:53.074Z,102191.50
2023-04-17T13:37:20.562Z,102183.44
2023-04-17T13:39:47.062Z,102188.25
2023-04-17T13:42:15.982Z,102186.69
2023-04-17T13:44:42.540Z,102184.28
2023-04-17T13:47:09.122Z,102177.88
2023-04-17T13:49:35.794Z,102167.56
2023-04-17T13:52:03.344Z,102164.97
2023-04-17T13:54:29.904Z,102164.63
2023-04-17T13:56:57.400Z,102166.88
2023-04-17T13:59:24.183Z,102170.25
2023-04-17T14:01:50.900Z,102163.84
2023-04-17T14:04:17.688Z,102161.13
2023-04-17T14:06:46.915Z,102159.50
2023-04-17T14:09:13.663Z,102151.38
2023-04-17T14:11:41.026Z,102157.34
2023-04-17T14:14:07.483Z,102158.31
2023-04-17T14:16:34.112Z,102157.94
2023-04-17T14:19:13.405Z,102152.06
2023-04-17T14:21:41.125Z,102160.34
2023-04-17T14:24:07.675Z,102131.84
2023-04-17T14:26:34.161Z,102128.25
2023-04-17T14:29:00.930Z,102138.94
2023-04-17T14:31:27.498Z,102141.03
2023-04-17T14:33:54.488Z,102134.56
2023-04-17T14:36:20.981Z,102135.59
2023-04-17T14:38:51.012Z,102143.38
2023-04-17T14:41:17.739Z,102138.59
2023-04-17T14:43:44.827Z,102129.59
2023-04-17T14:46:11.979Z,102131.13
2023-04-17T14:48:54.047Z,102136.97
2023-04-17T14:51:22.417Z,102127.41
2023-04-17T14:53:48.904Z,102135.88
2023-04-17T14:56:15.899Z,102124.47
2023-04-17T14:58:43.196Z,102124.78
2023-04-17T15:01:09.740Z,102126.78
2023-04-17T15:03:36.337Z,102126.00
2023-04-17T15:06:03.477Z,102122.31
2023-04-17T15:08:31.231Z,102116.41
2023-04-17T15:10:58.710Z,102118.50
2023-04-17T15:13:25.352Z,102111.59
2023-04-17T15:15:51.815Z,102110.25
2023-04-17T15:18:18.295Z,102107.72
2023-04-17T15:20:44.839Z,102112.41
2023-04-17T15:23:11.346Z,102103.09
2023-04-17T15:25:37.775Z,102105.34
2023-04-17T15:28:04.421Z,102103.16
2023-04-17T15:30:30.924Z,102107.16
2023-04-17T15:32:57.402Z,102112.72
2023-04-17T15:35:23.927Z,102105.75
2023-04-17T15:37:50.427Z,102109.25
2023-04-17T15:40:16.870Z,102109.41
2023-04-17T15:42:43.669Z,102100.53
2023-04-17T15:45:10.697Z,102101.53
2023-04-17T15:47:37.230Z,102100.47
2023-04-17T15:50:03.955Z,102109.56
2023-04-17T15:52:30.421Z,102103.63
2023-04-17T15:54:56.904Z,102103.69
2023-04-17T15:57:23.488Z,102103.44
2023-04-17T15:59:50.201Z,102101.53
2023-04-17T16:02:16.783Z,102094.66
2023-04-17T16:04:43.805Z,102095.00
2023-04-17T16:07:11.946Z,102080.66
2023-04-17T16:09:39.757Z,102087.97
2023-04-17T16:12:10.289Z,102091.59
2023-04-17T16:14:37.899Z,102090.03
2023-04-17T16:17:04.649Z,102086.25
2023-04-17T16:19:41.439Z,102087.97
2023-04-17T16:22:07.856Z,102074.38
2023-04-17T16:24:34.333Z,102078.50
2023-04-17T16:27:01.145Z,102074.84
2023-04-17T16:29:27.766Z,102078.34
2023-04-17T16:31:55.053Z,102082.88
2023-04-17T16:34:22.293Z,102074.47
2023-04-17T16:36:49.571Z,102066.06
2023-04-17T16:39:16.178Z,102074.00
2023-04-17T16:41:43.265Z,102068.47
2023-04-17T16:44:09.766Z,102066.69
2023-04-17T16:46:52.094Z,102068.00
2023-04-17T16:49:22.746Z,102067.72
2023-04-17T16:51:51.486Z,102064.69
2023-04-17T16:54:19.388Z,102067.53
2023-04-17T16:56:51.050Z,102066.41
2023-04-17T16:59:17.522Z,102068.84
2023-04-17T17:01:46.970Z,102070.50
2023-04-17T17:04:13.522Z,102060.25
2023-04-17T17:06:39.980Z,102071.88
2023-04-17T17:09:06.660Z,102072.34
2023-04-17T17:11:33.284Z,102070.41
2023-04-17T17:13:59.772Z,102067.69
2023-04-17T17:16:26.327Z,102078.19
2023-04-17T17:18:52.845Z,102076.69
2023-04-17T17:21:19.339Z,102078.00
2023-04-17T17:23:46.036Z,102076.84
2023-04-17T17:26:12.559Z,102075.31
2023-04-17T17:28:38.980Z,102075.47
2023-04-17T17:31:10.044Z,102081.47
2023-04-17T17:33:36.770Z,102073.56
2023-04-17T17:36:03.752Z,102077.19
2023-04-17T17:38:32.401Z,102076.03
2023-04-17T17:40:59.161Z,102078.03
2023-04-17T17:43:28.036Z,102083.25
2023-04-17T17:45:54.507Z,102073.28
2023-04-17T17:48:21.219Z,102074.16
2023-04-17T17:50:48.004Z,102075.38
2023-04-17T17:53:16.903Z,102085.41
2023-04-17T17:55:50.588Z,102082.25
2023-04-17T17:58:17.059Z,102074.66
2023-04-17T18:00:43.889Z,102070.28
2023-04-17T18:03:10.608Z,102083.09
2023-04-17T18:05:37.196Z,102075.94
2023-04-17T18:08:03.670Z,102080.75
2023-04-17T18:10:30.171Z,102079.56
2023-04-17T18:12:56.610Z,102080.81
2023-04-17T18:15:23.034Z,102079.28
2023-04-17T18:17:49.817Z,102090.47
2023-04-17T18:20:16.377Z,102070.53
2023-04-17T18:22:43.032Z,102080.16
2023-04-17T18:25:10.127Z,102081.75
2023-04-17T18:27:36.652Z,102076.94
2023-04-17T18:30:05.367Z,102087.75
2023-04-17T18:32:32.262Z,102086.97
2023-04-17T18:34:59.336Z,102088.16
2023-04-17T18:37:25.866Z,102087.38
2023-04-17T18:39:52.851Z,102089.78
2023-04-17T18:42:20.027Z,102087.81
2023-04-17T18:44:46.557Z,102087.41
2023-04-17T18:47:13.050Z,102102.97
2023-04-17T18:49:39.490Z,102098.19
2023-04-17T18:52:05.927Z,102102.97
2023-04-17T18:54:32.531Z,102096.59
2023-04-17T18:56:58.942Z,102107.75
2023-04-17T18:59:27.983Z,102107.38
2023-04-17T19:01:54.474Z,102101.81
2023-04-17T19:04:21.740Z,102105.00
2023-04-17T19:06:48.218Z,102100.19
2023-04-17T19:09:14.703Z,102106.19
2023-04-17T19:11:41.190Z,102105.00
2023-04-17T19:14:07.662Z,102104.97
2023-04-17T19:16:34.364Z,102107.78
2023-04-17T19:19:01.084Z,102107.38
2023-04-17T19:21:28.481Z,102098.97
2023-04-17T19:23:55.108Z,102101.34
2023-04-17T19:26:21.945Z,102108.09
2023-04-17T19:28:48.827Z,102112.06
2023-04-17T19:31:15.819Z,102100.91
2023-04-17T19:33:42.909Z,102112.44
2023-04-17T19:36:09.347Z,102110.06
2023-04-17T19:38:35.895Z,102106.03
2023-04-17T19:41:14.721Z,102102.47
2023-04-17T19:43:42.512Z,102100.44
2023-04-17T19:46:09.580Z,102102.03
2023-04-17T19:48:36.953Z,102111.59
2023-04-17T19:51:08.168Z,102109.56
2023-04-17T19:53:36.025Z,102107.19
2023-04-17T19:56:04.831Z,102101.59
2023-04-17T19:58:33.305Z,102114.34
2023-04-17T20:01:00.749Z,102105.97
2023-04-17T20:03:28.542Z,102110.34
2023-04-17T20:05:57.932Z,102110.75
2023-04-17T20:08:25.564Z,102109.91
2023-04-17T20:10:52.221Z,102106.31
2023-04-17T20:13:18.829Z,102105.47
2023-04-17T20:15:45.405Z,102104.28
2023-04-17T20:18:12.381Z,102113.41
2023-04-17T20:20:39.183Z,102116.16
2023-04-17T20:23:06.092Z,102113.34
2023-04-17T20:25:32.643Z,102114.91
2023-04-17T20:27:59.114Z,102112.50
2023-04-17T20:30:25.690Z,102113.22
2023-04-17T20:32:52.384Z,102114.44
2023-04-17T20:35:20.868Z,102116.41
2023-04-17T20:37:47.554Z,102114.78
2023-04-17T20:40:14.348Z,102115.53
2023-04-17T20:42:42.125Z,102109.94
2023-04-17T20:45:09.526Z,102113.94
2023-04-17T20:47:37.500Z,102109.97
2023-04-17T20:50:05.611Z,102111.94
2023-04-17T20:52:32.752Z,102118.28
2023-04-17T20:55:00.903Z,102115.88
2023-04-17T20:57:28.816Z,102114.63
2023-04-17T20:59:55.749Z,102109.88
2023-04-17T21:02:22.479Z,102108.19
2023-04-17T21:04:49.495Z,102118.56
2023-04-17T21:07:16.468Z,102108.16
2023-04-17T21:09:43.025Z,102106.09
2023-04-17T21:12:09.607Z,102114.88
2023-04-17T21:14:39.259Z,102117.59
2023-04-17T21:17:06.528Z,102111.59
2023-04-17T21:19:35.918Z,102113.97
2023-04-17T21:22:02.473Z,102112.75
2023-04-17T21:24:29.098Z,102116.69
2023-04-17T21:26:58.567Z,102119.03
2023-04-17T21:29:28.743Z,102122.59
2023-04-17T21:31:56.336Z,102121.78
2023-04-17T21:34:24.052Z,102117.72
2023-04-17T21:36:52.835Z,102118.84
2023-04-17T21:39:19.286Z,102124.38
2023-04-17T21:41:45.694Z,102111.63
2023-04-17T21:44:12.364Z,102125.53
2023-04-17T21:46:39.086Z,102114.28
2023-04-17T21:49:05.624Z,102121.91
2023-04-17T21:51:32.048Z,102123.84
2023-04-17T21:53:58.624Z,102127.00
2023-04-17T21:56:25.194Z,102123.38
2023-04-17T21:58:51.713Z,102130.97
2023-04-17T22:01:18.212Z,102133.69
2023-04-17T22:03:44.730Z,102127.38
2023-04-17T22:06:11.439Z,102131.28
2023-04-17T22:08:37.912Z,102135.66
2023-04-17T22:11:05.468Z,102125.59
2023-04-17T22:13:32.051Z,102128.38
2023-04-17T22:15:58.694Z,102137.09
2023-04-17T22:18:27.373Z,102129.75
2023-04-17T22:20:53.843Z,102123.81
2023-04-17T22:23:20.468Z,102128.50
2023-04-17T22:25:47.133Z,102126.50
2023-04-17T22:28:13.641Z,102124.03
2023-04-17T22:30:40.116Z,102126.34
2023-04-17T22:33:06.639Z,102135.41
2023-04-17T22:35:33.107Z,102125.47
2023-04-17T22:37:59.591Z,102136.88
2023-04-17T22:40:26.029Z,102139.56
2023-04-17T22:42:52.564Z,102135.47
2023-04-17T22:45:19.028Z,102132.63
2023-04-17T22:47:45.570Z,102140.50
2023-04-17T22:50:14.192Z,102144.34
2023-04-17T22:52:40.844Z,102137.50
2023-04-17T22:55:07.689Z,102138.94
2023-04-17T22:57:34.171Z,102147.66
2023-04-17T23:00:00.624Z,102147.19
2023-04-17T23:02:27.193Z,102146.72
2023-04-17T23:04:53.725Z,102156.53
2023-04-17T23:07:20.277Z,102146.06
2023-04-17T23:09:46.736Z,102148.34
2023-04-17T23:12:13.213Z,102158.69
2023-04-17T23:14:39.669Z,102159.38
2023-04-17T23:17:06.528Z,102149.72
2023-04-17T23:19:33.052Z,102158.34
2023-04-17T23:22:01.093Z,102150.72
2023-04-17T23:24:28.003Z,102151.53
2023-04-17T23:26:55.190Z,102152.63
2023-04-17T23:29:21.658Z,102158.91
2023-04-17T23:31:48.724Z,102152.28
2023-04-17T23:34:15.562Z,102157.81
2023-04-17T23:36:42.319Z,102151.09
2023-04-17T23:39:09.223Z,102152.88
2023-04-17T23:41:35.683Z,102157.94
2023-04-17T23:44:03.891Z,102164.63
2023-04-17T23:46:30.875Z,102157.84
2023-04-17T23:48:57.381Z,102158.06
2023-04-17T23:51:23.896Z,102166.75
2023-04-17T23:53:50.663Z,102161.50
2023-04-17T23:56:18.040Z,102161.06
2023-04-17T23:58:44.473Z,102157.72
